sensor_id;sensor_type;location;lat;lon;timestamp;pressure;altitude;pressure_sealevel;temperature;humidity
77321;BME280;66382;52.252;8.780;2023-06-05T00:00:53;101233.09;;;14.32;49.41
77321;BME280;66382;52.252;8.780;2023-06-05T00:03:18;101240.38;;;14.32;49.06
77321;BME280;66382;52.252;8.780;2023-06-05T00:05:44;101242.59;;;14.28;49.94
77321;BME280;66382;52.252;8.780;2023-06-05T00:08:11;101240.94;;;14.27;48.89
77321;BME280;66382;52.252;8.780;2023-06-05T00:10:37;101242.16;;;14.25;49.26
77321;BME280;66382;52.252;8.780;2023-06-05T00:13:03;101240.88;;;14.20;50.58
77321;BME280;66382;52.252;8.780;2023-06-05T00:15:29;101226.91;;;14.10;49.35
77321;BME280;66382;52.252;8.780;2023-06-05T00:17:54;101233.94;;;14.11;48.72
77321;BME280;66382;52.252;8.780;2023-06-05T00:20:20;101241.38;;;14.09;50.02
77321;BME280;66382;52.252;8.780;2023-06-05T00:22:46;101237.63;;;14.04;50.21
77321;BME280;66382;52.252;8.780;2023-06-05T00:25:13;101227.41;;;13.99;47.37
77321;BME280;66382;52.252;8.780;2023-06-05T00:27:39;101235.06;;;13.95;50.57
77321;BME280;66382;52.252;8.780;2023-06-05T00:30:05;101235.06;;;13.95;50.58
77321;BME280;66382;52.252;8.780;2023-06-05T00:32:31;101226.13;;;13.95;50.76
77321;BME280;66382;52.252;8.780;2023-06-05T00:34:57;101221.13;;;13.92;50.95
77321;BME280;66382;52.252;8.780;2023-06-05T00:37:22;101226.25;;;13.87;50.41
77321;BME280;66382;52.252;8.780;2023-06-05T00:39:48;101222.94;;;13.85;51.19
77321;BME280;66382;52.252;8.780;2023-06-05T00:42:15;101215.44;;;13.80;51.34
77321;BME280;66382;52.252;8.780;2023-06-05T00:44:41;101221.38;;;13.75;51.72
77321;BME280;66382;52.252;8.780;2023-06-05T00:47:07;101217.59;;;13.70;50.61
77321;BME280;66382;52.252;8.780;2023-06-05T00:49:33;101224.41;;;13.66;51.44
77321;BME280;66382;52.252;8.780;2023-06-05T00:51:59;101225.59;;;13.63;51.20
77321;BME280;66382;52.252;8.780;2023-06-05T00:54:24;101226.63;;;13.62;49.58
77321;BME280;66382;52.252;8.780;2023-06-05T00:56:50;101215.00;;;13.62;51.05
77321;BME280;66382;52.252;8.780;2023-06-05T00:59:18;101219.75;;;13.60;51.73
77321;BME280;66382;52.252;8.780;2023-06-05T01:01:44;101213.94;;;13.56;50.79
77321;BME280;66382;52.252;8.780;2023-06-05T01:04:09;101220.72;;;13.52;52.17
77321;BME280;66382;52.252;8.780;2023-06-05T01:06:36;101216.53;;;13.49;52.16
77321;BME280;66382;52.252;8.780;2023-06-05T01:09:02;101217.31;;;13.43;51.38
77321;BME280;66382;52.252;8.780;2023-06-05T01:11:34;101209.41;;;13.42;51.42
77321;BME280;66382;52.252;8.780;2023-06-05T01:14:08;101211.09;;;13.43;51.65
77321;BME280;66382;52.252;8.780;2023-06-05T01:16:39;101215.63;;;13.42;52.67
77321;BME280;66382;52.252;8.780;2023-06-05T01:19:05;101217.50;;;13.42;51.29
77321;BME280;66382;52.252;8.780;2023-06-05T01:21:32;101213.31;;;13.39;51.48
77321;BME280;66382;52.252;8.780;2023-06-05T01:23:59;101210.81;;;13.38;53.10
77321;BME280;66382;52.252;8.780;2023-06-05T01:26:30;101211.00;;;13.36;51.19
77321;BME280;66382;52.252;8.780;2023-06-05T01:28:59;101213.50;;;13.38;53.40
77321;BME280;66382;52.252;8.780;2023-06-05T01:31:28;101207.28;;;13.37;52.14
77321;BME280;66382;52.252;8.780;2023-06-05T01:33:58;101209.97;;;13.37;51.20
77321;BME280;66382;52.252;8.780;2023-06-05T01:36:26;101214.72;;;13.35;51.92
77321;BME280;66382;52.252;8.780;2023-06-05T01:38:53;101210.19;;;13.36;52.98
77321;BME280;66382;52.252;8.780;2023-06-05T01:41:22;101209.53;;;13.33;51.44
77321;BME280;66382;52.252;8.780;2023-06-05T01:43:48;101206.00;;;13.33;51.67
77321;BME280;66382;52.252;8.780;2023-06-05T01:46:18;101210.91;;;13.29;52.37
77321;BME280;66382;52.252;8.780;2023-06-05T01:48:45;101203.59;;;13.23;52.29
77321;BME280;66382;52.252;8.780;2023-06-05T01:51:11;101204.22;;;13.25;53.47
77321;BME280;66382;52.252;8.780;2023-06-05T01:53:36;101198.56;;;13.20;53.31
77321;BME280;66382;52.252;8.780;2023-06-05T01:56:02;101202.66;;;13.16;53.41
77321;BME280;66382;52.252;8.780;2023-06-05T01:58:29;101198.00;;;13.10;52.11
77321;BME280;66382;52.252;8.780;2023-06-05T02:00:55;101202.97;;;13.06;54.50
77321;BME280;66382;52.252;8.780;2023-06-05T02:03:21;101200.66;;;13.03;53.52
77321;BME280;66382;52.252;8.780;2023-06-05T02:05:48;101205.00;;;13.04;53.38
77321;BME280;66382;52.252;8.780;2023-06-05T02:08:14;101201.47;;;13.04;54.10
77321;BME280;66382;52.252;8.780;2023-06-05T02:10:39;101200.00;;;13.01;54.04
77321;BME280;66382;52.252;8.780;2023-06-05T02:13:05;101203.50;;;13.02;54.10
77321;BME280;66382;52.252;8.780;2023-06-05T02:15:32;101207.25;;;13.01;53.09
77321;BME280;66382;52.252;8.780;2023-06-05T02:17:58;101209.06;;;13.00;54.78
77321;BME280;66382;52.252;8.780;2023-06-05T02:20:24;101204.72;;;12.99;54.43
77321;BME280;66382;52.252;8.780;2023-06-05T02:22:50;101198.03;;;12.95;54.22
77321;BME280;66382;52.252;8.780;2023-06-05T02:25:16;101197.59;;;12.91;54.10
77321;BME280;66382;52.252;8.780;2023-06-05T02:27:42;101183.22;;;12.84;53.97
77321;BME280;66382;52.252;8.780;2023-06-05T02:30:08;101198.16;;;12.87;54.94
77321;BME280;66382;52.252;8.780;2023-06-05T02:32:35;101191.94;;;12.86;53.88
77321;BME280;66382;52.252;8.780;2023-06-05T02:35:01;101198.16;;;12.87;54.45
77321;BME280;66382;52.252;8.780;2023-06-05T02:37:27;101191.72;;;12.88;55.76
77321;BME280;66382;52.252;8.780;2023-06-05T02:39:53;101191.94;;;12.86;55.09
77321;BME280;66382;52.252;8.780;2023-06-05T02:42:19;101194.78;;;12.85;54.73
77321;BME280;66382;52.252;8.780;2023-06-05T02:44:45;101195.34;;;12.80;54.43
77321;BME280;66382;52.252;8.780;2023-06-05T02:47:11;101188.31;;;12.79;55.22
77321;BME280;66382;52.252;8.780;2023-06-05T02:49:38;101188.69;;;12.76;55.71
77321;BME280;66382;52.252;8.780;2023-06-05T02:52:04;101194.25;;;12.75;55.32
77321;BME280;66382;52.252;8.780;2023-06-05T02:54:30;101184.03;;;12.70;56.27
77321;BME280;66382;52.252;8.780;2023-06-05T02:56:55;101186.44;;;12.65;55.03
77321;BME280;66382;52.252;8.780;2023-06-05T02:59:21;101191.09;;;12.71;55.95
77321;BME280;66382;52.252;8.780;2023-06-05T03:01:47;101188.09;;;12.66;55.72
77321;BME280;66382;52.252;8.780;2023-06-05T03:04:13;101192.88;;;12.64;56.10
77321;BME280;66382;52.252;8.780;2023-06-05T03:06:40;101198.41;;;12.62;55.63
77321;BME280;66382;52.252;8.780;2023-06-05T03:09:06;101191.56;;;12.60;55.12
77321;BME280;66382;52.252;8.780;2023-06-05T03:11:31;101184.69;;;12.57;56.39
77321;BME280;66382;52.252;8.780;2023-06-05T03:13:57;101184.03;;;12.55;55.58
77321;BME280;66382;52.252;8.780;2023-06-05T03:16:23;101183.88;;;12.57;55.22
77321;BME280;66382;52.252;8.780;2023-06-05T03:18:48;101178.66;;;12.55;55.95
77321;BME280;66382;52.252;8.780;2023-06-05T03:21:14;101182.19;;;12.56;56.15
77321;BME280;66382;52.252;8.780;2023-06-05T03:23:41;101178.75;;;12.47;55.08
77321;BME280;66382;52.252;8.780;2023-06-05T03:26:07;101178.28;;;12.43;56.42
77321;BME280;66382;52.252;8.780;2023-06-05T03:28:32;101179.31;;;12.42;55.99
77321;BME280;66382;52.252;8.780;2023-06-05T03:30:58;101180.63;;;12.46;55.95
77321;BME280;66382;52.252;8.780;2023-06-05T03:33:24;101179.59;;;12.47;55.73
77321;BME280;66382;52.252;8.780;2023-06-05T03:35:49;101175.84;;;12.48;55.69
77321;BME280;66382;52.252;8.780;2023-06-05T03:38:15;101173.38;;;12.47;56.78
77321;BME280;66382;52.252;8.780;2023-06-05T03:40:42;101174.19;;;12.47;55.97
77321;BME280;66382;52.252;8.780;2023-06-05T03:43:08;101174.84;;;12.50;56.32
77321;BME280;66382;52.252;8.780;2023-06-05T03:45:35;101172.16;;;12.50;56.32
77321;BME280;66382;52.252;8.780;2023-06-05T03:48:01;101171.13;;;12.51;55.04
77321;BME280;66382;52.252;8.780;2023-06-05T03:50:27;101171.97;;;12.51;55.94
77321;BME280;66382;52.252;8.780;2023-06-05T03:52:53;101173.66;;;12.52;55.93
77321;BME280;66382;52.252;8.780;2023-06-05T03:55:18;101173.09;;;12.57;56.87
77321;BME280;66382;52.252;8.780;2023-06-05T03:57:46;101178.47;;;12.57;55.92
77321;BME280;66382;52.252;8.780;2023-06-05T04:00:13;101174.75;;;12.58;56.77
77321;BME280;66382;52.252;8.780;2023-06-05T04:02:38;101178.09;;;12.60;57.04
77321;BME280;66382;52.252;8.780;2023-06-05T04:05:05;101170.59;;;12.55;55.89
77321;BME280;66382;52.252;8.780;2023-06-05T04:07:31;101185.13;;;12.61;56.36
77321;BME280;66382;52.252;8.780;2023-06-05T04:09:56;101179.75;;;12.61;57.12
77321;BME280;66382;52.252;8.780;2023-06-05T04:12:22;101163.81;;;12.59;57.25
77321;BME280;66382;52.252;8.780;2023-06-05T04:14:49;101174.03;;;12.64;56.39
77321;BME280;66382;52.252;8.780;2023-06-05T04:17:15;101173.66;;;12.67;58.24
77321;BME280;66382;52.252;8.780;2023-06-05T04:19:40;101167.91;;;12.70;56.36
77321;BME280;66382;52.252;8.780;2023-06-05T04:22:06;101170.22;;;12.73;56.87
77321;BME280;66382;52.252;8.780;2023-06-05T04:24:32;101178.28;;;12.73;56.13
77321;BME280;66382;52.252;8.780;2023-06-05T04:26:58;101176.25;;;12.75;57.26
77321;BME280;66382;52.252;8.780;2023-06-05T04:29:24;101181.34;;;12.85;56.76
77321;BME280;66382;52.252;8.780;2023-06-05T04:31:51;101177.16;;;12.97;56.39
77321;BME280;66382;52.252;8.780;2023-06-05T04:34:16;101174.78;;;13.24;56.65
77321;BME280;66382;52.252;8.780;2023-06-05T04:36:42;101181.34;;;13.72;56.26
77321;BME280;66382;52.252;8.780;2023-06-05T04:39:08;101178.03;;;14.20;55.52
77321;BME280;66382;52.252;8.780;2023-06-05T04:41:33;101175.19;;;14.56;55.19
77321;BME280;66382;52.252;8.780;2023-06-05T04:43:59;101170.00;;;14.96;54.73
77321;BME280;66382;52.252;8.780;2023-06-05T04:46:25;101174.09;;;15.40;55.25
77321;BME280;66382;52.252;8.780;2023-06-05T04:48:53;101177.13;;;15.79;53.28
77321;BME280;66382;52.252;8.780;2023-06-05T04:51:19;101167.56;;;16.03;52.79
77321;BME280;66382;52.252;8.780;2023-06-05T04:53:44;101170.66;;;16.26;53.08
77321;BME280;66382;52.252;8.780;2023-06-05T04:56:10;101171.88;;;16.44;52.45
77321;BME280;66382;52.252;8.780;2023-06-05T04:58:36;101176.63;;;16.68;52.60
77321;BME280;66382;52.252;8.780;2023-06-05T05:01:01;101180.34;;;16.94;51.62
77321;BME280;66382;52.252;8.780;2023-06-05T05:03:27;101179.88;;;17.04;51.00
77321;BME280;66382;52.252;8.780;2023-06-05T05:05:54;101173.44;;;16.98;50.97
77321;BME280;66382;52.252;8.780;2023-06-05T05:08:20;101182.06;;;16.82;51.20
77321;BME280;66382;52.252;8.780;2023-06-05T05:10:46;101173.72;;;16.70;51.03
77321;BME280;66382;52.252;8.780;2023-06-05T05:13:11;101172.91;;;16.56;51.01
77321;BME280;66382;52.252;8.780;2023-06-05T05:15:37;101168.53;;;16.55;50.99
77321;BME280;66382;52.252;8.780;2023-06-05T05:18:03;101161.09;;;16.30;50.96
77321;BME280;66382;52.252;8.780;2023-06-05T05:20:29;101170.91;;;16.05;51.58
77321;BME280;66382;52.252;8.780;2023-06-05T05:22:56;101169.03;;;15.85;51.25
77321;BME280;66382;52.252;8.780;2023-06-05T05:25:21;101170.22;;;15.63;51.81
77321;BME280;66382;52.252;8.780;2023-06-05T05:27:47;101172.66;;;15.44;51.32
77321;BME280;66382;52.252;8.780;2023-06-05T05:30:13;101176.53;;;15.22;52.87
77321;BME280;66382;52.252;8.780;2023-06-05T05:32:39;101178.56;;;15.07;52.79
77321;BME280;66382;52.252;8.780;2023-06-05T05:35:05;101172.94;;;15.01;52.70
77321;BME280;66382;52.252;8.780;2023-06-05T05:37:31;101186.44;;;15.01;53.59
77321;BME280;66382;52.252;8.780;2023-06-05T05:39:58;101177.06;;;14.97;53.50
77321;BME280;66382;52.252;8.780;2023-06-05T05:42:23;101177.47;;;14.94;53.53
77321;BME280;66382;52.252;8.780;2023-06-05T05:44:49;101183.69;;;14.95;53.90
77321;BME280;66382;52.252;8.780;2023-06-05T05:47:15;101174.72;;;14.88;53.61
77321;BME280;66382;52.252;8.780;2023-06-05T05:49:40;101185.75;;;14.86;54.20
77321;BME280;66382;52.252;8.780;2023-06-05T05:52:06;101191.09;;;14.79;54.10
77321;BME280;66382;52.252;8.780;2023-06-05T05:54:32;101193.56;;;14.74;54.06
77321;BME280;66382;52.252;8.780;2023-06-05T05:56:59;101204.13;;;14.69;54.46
77321;BME280;66382;52.252;8.780;2023-06-05T05:59:25;101200.97;;;14.66;54.98
77321;BME280;66382;52.252;8.780;2023-06-05T06:01:50;101193.09;;;14.64;54.13
77321;BME280;66382;52.252;8.780;2023-06-05T06:04:16;101196.69;;;14.71;54.10
77321;BME280;66382;52.252;8.780;2023-06-05T06:06:42;101202.50;;;14.75;54.12
77321;BME280;66382;52.252;8.780;2023-06-05T06:09:08;101201.66;;;14.74;53.84
77321;BME280;66382;52.252;8.780;2023-06-05T06:11:35;101198.50;;;14.71;53.78
77321;BME280;66382;52.252;8.780;2023-06-05T06:14:03;101199.56;;;14.70;53.29
77321;BME280;66382;52.252;8.780;2023-06-05T06:16:28;101200.56;;;14.69;53.75
77321;BME280;66382;52.252;8.780;2023-06-05T06:18:54;101203.72;;;14.72;53.60
77321;BME280;66382;52.252;8.780;2023-06-05T06:21:19;101204.38;;;14.74;54.02
77321;BME280;66382;52.252;8.780;2023-06-05T06:23:45;101197.53;;;14.78;54.82
77321;BME280;66382;52.252;8.780;2023-06-05T06:26:11;101199.44;;;14.84;54.25
77321;BME280;66382;52.252;8.780;2023-06-05T06:28:37;101198.25;;;14.94;54.71
77321;BME280;66382;52.252;8.780;2023-06-05T06:31:04;101204.06;;;14.97;54.09
77321;BME280;66382;52.252;8.780;2023-06-05T06:33:31;101193.06;;;14.99;54.80
77321;BME280;66382;52.252;8.780;2023-06-05T06:35:56;101197.06;;;15.10;54.79
77321;BME280;66382;52.252;8.780;2023-06-05T06:38:22;101198.56;;;15.19;54.92
77321;BME280;66382;52.252;8.780;2023-06-05T06:40:48;101200.25;;;15.26;55.20
77321;BME280;66382;52.252;8.780;2023-06-05T06:43:13;101194.88;;;15.33;54.79
77321;BME280;66382;52.252;8.780;2023-06-05T06:45:39;101204.03;;;15.39;54.79
77321;BME280;66382;52.252;8.780;2023-06-05T06:48:06;101199.88;;;15.43;54.30
77321;BME280;66382;52.252;8.780;2023-06-05T06:50:32;101200.13;;;15.48;53.76
77321;BME280;66382;52.252;8.780;2023-06-05T06:52:57;101205.94;;;15.52;53.13
77321;BME280;66382;52.252;8.780;2023-06-05T06:55:23;101208.22;;;15.55;55.05
77321;BME280;66382;52.252;8.780;2023-06-05T06:57:49;101212.19;;;15.59;53.70
77321;BME280;66382;52.252;8.780;2023-06-05T07:00:15;101208.44;;;15.60;54.74
77321;BME280;66382;52.252;8.780;2023-06-05T07:02:40;101200.53;;;15.65;55.01
77321;BME280;66382;52.252;8.780;2023-06-05T07:05:08;101215.31;;;15.69;55.69
77321;BME280;66382;52.252;8.780;2023-06-05T07:07:33;101207.47;;;15.74;54.61
77321;BME280;66382;52.252;8.780;2023-06-05T07:09:59;101214.34;;;15.83;55.39
77321;BME280;66382;52.252;8.780;2023-06-05T07:12:25;101203.75;;;15.88;54.35
77321;BME280;66382;52.252;8.780;2023-06-05T07:14:50;101207.72;;;15.93;54.58
77321;BME280;66382;52.252;8.780;2023-06-05T07:17:16;101209.59;;;15.99;54.90
77321;BME280;66382;52.252;8.780;2023-06-05T07:19:42;101215.00;;;16.05;54.99
77321;BME280;66382;52.252;8.780;2023-06-05T07:22:09;101207.50;;;16.14;54.11
77321;BME280;66382;52.252;8.780;2023-06-05T07:24:35;101207.31;;;16.16;53.96
77321;BME280;66382;52.252;8.780;2023-06-05T07:27:02;101201.47;;;16.19;54.64
77321;BME280;66382;52.252;8.780;2023-06-05T07:29:29;101208.53;;;16.26;54.64
77321;BME280;66382;52.252;8.780;2023-06-05T07:31:56;101211.44;;;16.31;53.83
77321;BME280;66382;52.252;8.780;2023-06-05T07:34:23;101213.13;;;16.32;54.41
77321;BME280;66382;52.252;8.780;2023-06-05T07:36:50;101202.72;;;16.36;54.21
77321;BME280;66382;52.252;8.780;2023-06-05T07:39:18;101199.81;;;16.38;54.53
77321;BME280;66382;52.252;8.780;2023-06-05T07:41:44;101209.56;;;16.45;54.92
77321;BME280;66382;52.252;8.780;2023-06-05T07:44:14;101215.38;;;16.49;54.61
77321;BME280;66382;52.252;8.780;2023-06-05T07:46:40;101205.63;;;16.54;54.25
77321;BME280;66382;52.252;8.780;2023-06-05T07:49:06;101210.59;;;16.58;53.71
77321;BME280;66382;52.252;8.780;2023-06-05T07:51:32;101207.47;;;16.61;54.11
77321;BME280;66382;52.252;8.780;2023-06-05T07:53:58;101209.75;;;16.70;55.36
77321;BME280;66382;52.252;8.780;2023-06-05T07:56:25;101215.56;;;16.81;55.17
77321;BME280;66382;52.252;8.780;2023-06-05T07:58:50;101215.75;;;16.92;54.04
77321;BME280;66382;52.252;8.780;2023-06-05T08:01:16;101209.88;;;17.02;53.77
77321;BME280;66382;52.252;8.780;2023-06-05T08:03:42;101201.69;;;17.15;54.58
77321;BME280;66382;52.252;8.780;2023-06-05T08:06:07;101205.19;;;17.36;54.84
77321;BME280;66382;52.252;8.780;2023-06-05T08:08:33;101205.47;;;17.53;54.34
77321;BME280;66382;52.252;8.780;2023-06-05T08:10:59;101200.00;;;17.66;54.44
77321;BME280;66382;52.252;8.780;2023-06-05T08:13:26;101199.72;;;17.81;54.11
77321;BME280;66382;52.252;8.780;2023-06-05T08:15:52;101201.22;;;18.02;53.99
77321;BME280;66382;52.252;8.780;2023-06-05T08:18:18;101185.66;;;18.41;55.01
77321;BME280;66382;52.252;8.780;2023-06-05T08:20:43;101187.66;;;18.89;53.83
77321;BME280;66382;52.252;8.780;2023-06-05T08:23:09;101189.03;;;19.47;56.36
77321;BME280;66382;52.252;8.780;2023-06-05T08:25:35;101185.63;;;20.05;53.88
77321;BME280;66382;52.252;8.780;2023-06-05T08:28:00;101189.00;;;20.66;51.25
77321;BME280;66382;52.252;8.780;2023-06-05T08:30:27;101181.41;;;21.20;52.94
77321;BME280;66382;52.252;8.780;2023-06-05T08:32:53;101179.50;;;21.95;52.49
77321;BME280;66382;52.252;8.780;2023-06-05T08:35:19;101178.16;;;22.65;55.89
77321;BME280;66382;52.252;8.780;2023-06-05T08:37:44;101178.47;;;23.35;53.61
77321;BME280;66382;52.252;8.780;2023-06-05T08:40:11;101176.75;;;23.83;52.62
77321;BME280;66382;52.252;8.780;2023-06-05T08:42:37;101166.16;;;24.29;49.92
77321;BME280;66382;52.252;8.780;2023-06-05T08:45:04;101171.34;;;24.68;51.55
77321;BME280;66382;52.252;8.780;2023-06-05T08:47:31;101178.94;;;25.14;48.93
77321;BME280;66382;52.252;8.780;2023-06-05T08:49:57;101165.59;;;25.38;47.83
77321;BME280;66382;52.252;8.780;2023-06-05T08:52:23;101178.78;;;25.66;47.96
77321;BME280;66382;52.252;8.780;2023-06-05T08:54:50;101169.25;;;26.00;47.90
77321;BME280;66382;52.252;8.780;2023-06-05T08:57:17;101174.44;;;26.27;46.79
77321;BME280;66382;52.252;8.780;2023-06-05T08:59:43;101167.25;;;26.41;46.11
77321;BME280;66382;52.252;8.780;2023-06-05T09:02:09;101161.75;;;26.56;44.74
77321;BME280;66382;52.252;8.780;2023-06-05T09:04:38;101162.53;;;26.67;46.77
77321;BME280;66382;52.252;8.780;2023-06-05T09:07:04;101161.03;;;26.90;45.67
77321;BME280;66382;52.252;8.780;2023-06-05T09:09:31;101159.97;;;26.86;44.39
77321;BME280;66382;52.252;8.780;2023-06-05T09:12:02;101164.03;;;26.99;45.61
77321;BME280;66382;52.252;8.780;2023-06-05T09:14:28;101160.66;;;27.12;43.99
77321;BME280;66382;52.252;8.780;2023-06-05T09:16:54;101159.56;;;27.13;44.14
77321;BME280;66382;52.252;8.780;2023-06-05T09:19:19;101164.66;;;27.40;44.03
77321;BME280;66382;52.252;8.780;2023-06-05T09:21:52;101156.25;;;27.61;46.50
77321;BME280;66382;52.252;8.780;2023-06-05T09:24:19;101155.03;;;27.82;43.50
77321;BME280;66382;52.252;8.780;2023-06-05T09:26:52;101150.13;;;28.03;45.41
77321;BME280;66382;52.252;8.780;2023-06-05T09:29:20;101152.66;;;28.29;44.96
77321;BME280;66382;52.252;8.780;2023-06-05T09:31:46;101148.63;;;28.45;41.79
77321;BME280;66382;52.252;8.780;2023-06-05T09:34:20;101155.25;;;28.44;44.87
77321;BME280;66382;52.252;8.780;2023-06-05T09:36:46;101146.22;;;28.63;42.18
77321;BME280;66382;52.252;8.780;2023-06-05T09:39:16;101140.81;;;28.77;43.85
77321;BME280;66382;52.252;8.780;2023-06-05T09:41:43;101149.97;;;28.96;42.64
77321;BME280;66382;52.252;8.780;2023-06-05T09:44:09;101142.91;;;29.09;40.66
77321;BME280;66382;52.252;8.780;2023-06-05T09:46:50;101140.59;;;29.16;44.01
77321;BME280;66382;52.252;8.780;2023-06-05T09:49:15;101145.22;;;29.21;43.67
77321;BME280;66382;52.252;8.780;2023-06-05T09:51:43;101142.75;;;29.38;40.44
77321;BME280;66382;52.252;8.780;2023-06-05T09:54:09;101138.31;;;29.56;42.47
77321;BME280;66382;52.252;8.780;2023-06-05T09:56:39;101147.13;;;29.77;43.37
77321;BME280;66382;52.252;8.780;2023-06-05T09:59:06;101135.47;;;29.80;37.38
77321;BME280;66382;52.252;8.780;2023-06-05T10:01:35;101136.81;;;29.64;40.06
77321;BME280;66382;52.252;8.780;2023-06-05T10:04:05;101142.59;;;29.67;42.61
77321;BME280;66382;52.252;8.780;2023-06-05T10:06:32;101133.31;;;29.77;39.50
77321;BME280;66382;52.252;8.780;2023-06-05T10:08:59;101132.72;;;29.80;40.41
77321;BME280;66382;52.252;8.780;2023-06-05T10:11:26;101134.44;;;29.76;37.62
77321;BME280;66382;52.252;8.780;2023-06-05T10:13:53;101129.75;;;29.57;39.95
77321;BME280;66382;52.252;8.780;2023-06-05T10:16:20;101128.72;;;29.34;39.55
77321;BME280;66382;52.252;8.780;2023-06-05T10:18:47;101131.78;;;29.33;38.81
77321;BME280;66382;52.252;8.780;2023-06-05T10:21:14;101126.78;;;29.16;38.26
77321;BME280;66382;52.252;8.780;2023-06-05T10:23:40;101134.09;;;28.64;36.51
77321;BME280;66382;52.252;8.780;2023-06-05T10:26:15;101130.03;;;28.03;37.34
77321;BME280;66382;52.252;8.780;2023-06-05T10:28:50;101122.88;;;27.67;36.89
77321;BME280;66382;52.252;8.780;2023-06-05T10:31:25;101120.31;;;27.42;37.92
77321;BME280;66382;52.252;8.780;2023-06-05T10:34:03;101123.47;;;27.20;38.18
77321;BME280;66382;52.252;8.780;2023-06-05T10:36:48;101106.88;;;26.91;38.93
77321;BME280;66382;52.252;8.780;2023-06-05T10:39:19;101114.34;;;26.75;37.57
77321;BME280;66382;52.252;8.780;2023-06-05T10:41:44;101107.31;;;26.53;37.03
77321;BME280;66382;52.252;8.780;2023-06-05T10:44:10;101105.16;;;26.30;36.36
77321;BME280;66382;52.252;8.780;2023-06-05T10:46:38;101096.94;;;26.20;38.67
77321;BME280;66382;52.252;8.780;2023-06-05T10:49:11;101102.72;;;26.13;39.20
77321;BME280;66382;52.252;8.780;2023-06-05T10:51:38;101099.72;;;25.99;37.53
77321;BME280;66382;52.252;8.780;2023-06-05T10:54:04;101102.47;;;25.89;38.20
77321;BME280;66382;52.252;8.780;2023-06-05T10:56:52;101103.56;;;25.83;39.70
77321;BME280;66382;52.252;8.780;2023-06-05T10:59:19;101098.34;;;25.76;36.99
77321;BME280;66382;52.252;8.780;2023-06-05T11:02:22;101091.22;;;25.49;38.79
77321;BME280;66382;52.252;8.780;2023-06-05T11:05:08;101093.94;;;25.29;39.59
77321;BME280;66382;52.252;8.780;2023-06-05T11:07:34;101089.25;;;25.24;38.90
77321;BME280;66382;52.252;8.780;2023-06-05T11:10:13;101083.75;;;25.19;39.20
77321;BME280;66382;52.252;8.780;2023-06-05T11:12:56;101082.91;;;25.14;39.54
77321;BME280;66382;52.252;8.780;2023-06-05T11:15:39;101080.16;;;25.03;39.69
77321;BME280;66382;52.252;8.780;2023-06-05T11:18:31;101080.94;;;24.94;39.85
77321;BME280;66382;52.252;8.780;2023-06-05T11:20:58;101083.38;;;24.85;38.11
77321;BME280;66382;52.252;8.780;2023-06-05T11:23:24;101083.34;;;24.80;39.30
77321;BME280;66382;52.252;8.780;2023-06-05T11:25:50;101075.41;;;24.78;38.34
77321;BME280;66382;52.252;8.780;2023-06-05T11:28:37;101068.00;;;24.74;38.54
77321;BME280;66382;52.252;8.780;2023-06-05T11:31:03;101081.41;;;24.70;36.81
77321;BME280;66382;52.252;8.780;2023-06-05T11:33:29;101068.47;;;24.55;36.19
77321;BME280;66382;52.252;8.780;2023-06-05T11:36:00;101077.47;;;24.45;38.70
77321;BME280;66382;52.252;8.780;2023-06-05T11:38:26;101068.94;;;24.42;37.75
77321;BME280;66382;52.252;8.780;2023-06-05T11:40:53;101072.19;;;24.34;36.70
77321;BME280;66382;52.252;8.780;2023-06-05T11:43:19;101065.28;;;24.21;36.31
77321;BME280;66382;52.252;8.780;2023-06-05T11:45:49;101070.69;;;24.11;37.30
77321;BME280;66382;52.252;8.780;2023-06-05T11:48:15;101065.75;;;24.08;37.16
77321;BME280;66382;52.252;8.780;2023-06-05T11:50:51;101069.31;;;24.08;39.31
77321;BME280;66382;52.252;8.780;2023-06-05T11:53:19;101056.97;;;24.06;37.07
77321;BME280;66382;52.252;8.780;2023-06-05T11:55:45;101066.84;;;24.07;36.99
77321;BME280;66382;52.252;8.780;2023-06-05T11:58:11;101065.97;;;24.01;37.02
77321;BME280;66382;52.252;8.780;2023-06-05T12:00:36;101058.81;;;23.95;36.13
77321;BME280;66382;52.252;8.780;2023-06-05T12:03:02;101058.22;;;23.88;37.46
77321;BME280;66382;52.252;8.780;2023-06-05T12:05:28;101053.31;;;23.90;38.43
77321;BME280;66382;52.252;8.780;2023-06-05T12:07:54;101061.34;;;24.01;37.94
77321;BME280;66382;52.252;8.780;2023-06-05T12:10:33;101053.72;;;24.09;38.89
77321;BME280;66382;52.252;8.780;2023-06-05T12:12:58;101057.84;;;24.11;37.16
77321;BME280;66382;52.252;8.780;2023-06-05T12:15:24;101057.56;;;24.13;38.22
77321;BME280;66382;52.252;8.780;2023-06-05T12:17:50;101051.25;;;24.12;38.33
77321;BME280;66382;52.252;8.780;2023-06-05T12:20:17;101049.34;;;24.18;37.84
77321;BME280;66382;52.252;8.780;2023-06-05T12:22:43;101049.09;;;24.19;37.72
77321;BME280;66382;52.252;8.780;2023-06-05T12:25:15;101047.16;;;24.15;37.83
77321;BME280;66382;52.252;8.780;2023-06-05T12:27:42;101039.16;;;24.03;37.26
77321;BME280;66382;52.252;8.780;2023-06-05T12:30:09;101037.75;;;24.00;36.83
77321;BME280;66382;52.252;8.780;2023-06-05T12:32:35;101037.75;;;24.00;37.08
77321;BME280;66382;52.252;8.780;2023-06-05T12:35:00;101033.94;;;24.01;36.66
77321;BME280;66382;52.252;8.780;2023-06-05T12:37:28;101036.41;;;24.03;36.93
77321;BME280;66382;52.252;8.780;2023-06-05T12:39:54;101035.91;;;24.06;37.52
77321;BME280;66382;52.252;8.780;2023-06-05T12:42:20;101036.75;;;24.12;37.00
77321;BME280;66382;52.252;8.780;2023-06-05T12:44:47;101036.19;;;24.15;37.34
77321;BME280;66382;52.252;8.780;2023-06-05T12:47:12;101042.25;;;24.17;36.33
77321;BME280;66382;52.252;8.780;2023-06-05T12:49:38;101028.53;;;24.12;36.03